sensor_id;sensor_type;location;lat;lon;timestamp;temperature;humidity
12053;DHT22;6087;48.982;12.064;2023-05-03T00:01:07;11.50;83.30
12053;DHT22;6087;48.982;12.064;2023-05-03T00:03:34;11.50;83.60
12053;DHT22;6087;48.982;12.064;2023-05-03T00:06:09;11.50;83.30
12053;DHT22;6087;48.982;12.064;2023-05-03T00:08:36;11.40;83.90
12053;DHT22;6087;48.982;12.064;2023-05-03T00:11:03;11.40;85.00
12053;DHT22;6087;48.982;12.064;2023-05-03T00:13:30;11.40;85.70
12053;DHT22;6087;48.982;12.064;2023-05-03T00:16:07;11.30;85.80
12053;DHT22;6087;48.982;12.064;2023-05-03T00:18:37;11.30;86.80
12053;DHT22;6087;48.982;12.064;2023-05-03T00:21:04;11.30;88.80
12053;DHT22;6087;48.982;12.064;2023-05-03T00:23:31;11.20;89.00
12053;DHT22;6087;48.982;12.064;2023-05-03T00:25:58;11.20;89.50
12053;DHT22;6087;48.982;12.064;2023-05-03T00:28:25;11.20;90.20
12053;DHT22;6087;48.982;12.064;2023-05-03T00:30:52;11.20;91.00
12053;DHT22;6087;48.982;12.064;2023-05-03T00:33:20;11.10;91.90
12053;DHT22;6087;48.982;12.064;2023-05-03T00:35:49;11.10;91.40
12053;DHT22;6087;48.982;12.064;2023-05-03T00:38:22;11.10;92.10
12053;DHT22;6087;48.982;12.064;2023-05-03T00:40:53;11.10;91.90
12053;DHT22;6087;48.982;12.064;2023-05-03T00:43:20;11.10;91.70
12053;DHT22;6087;48.982;12.064;2023-05-03T00:45:47;11.10;91.40
12053;DHT22;6087;48.982;12.064;2023-05-03T00:48:13;11.10;91.70
12053;DHT22;6087;48.982;12.064;2023-05-03T00:50:43;11.10;91.50
12053;DHT22;6087;48.982;12.064;2023-05-03T00:53:14;11.10;91.60
12053;DHT22;6087;48.982;12.064;2023-05-03T00:55:46;11.10;91.90
12053;DHT22;6087;48.982;12.064;2023-05-03T00:58:14;11.10;91.90
12053;DHT22;6087;48.982;12.064;2023-05-03T01:00:47;11.10;91.80
12053;DHT22;6087;48.982;12.064;2023-05-03T01:03:14;11.00;91.60
12053;DHT22;6087;48.982;12.064;2023-05-03T01:05:50;11.10;91.50
12053;DHT22;6087;48.982;12.064;2023-05-03T01:08:25;11.10;91.40
12053;DHT22;6087;48.982;12.064;2023-05-03T01:11:00;11.00;91.60
12053;DHT22;6087;48.982;12.064;2023-05-03T01:13:37;11.00;92.20
12053;DHT22;6087;48.982;12.064;2023-05-03T01:16:13;11.00;91.90
12053;DHT22;6087;48.982;12.064;2023-05-03T01:18:44;10.90;91.50
12053;DHT22;6087;48.982;12.064;2023-05-03T01:21:15;10.90;92.10
12053;DHT22;6087;48.982;12.064;2023-05-03T01:23:50;10.90;91.90
12053;DHT22;6087;48.982;12.064;2023-05-03T01:26:25;10.90;92.00
12053;DHT22;6087;48.982;12.064;2023-05-03T01:28:52;10.90;91.90
12053;DHT22;6087;48.982;12.064;2023-05-03T01:31:27;10.90;92.00
12053;DHT22;6087;48.982;12.064;2023-05-03T01:34:09;10.80;92.20
12053;DHT22;6087;48.982;12.064;2023-05-03T01:36:42;10.80;92.20
12053;DHT22;6087;48.982;12.064;2023-05-03T01:39:13;10.80;92.80
12053;DHT22;6087;48.982;12.064;2023-05-03T01:41:43;10.80;92.70
12053;DHT22;6087;48.982;12.064;2023-05-03T01:44:11;10.80;92.80
12053;DHT22;6087;48.982;12.064;2023-05-03T01:46:42;10.70;92.60
12053;DHT22;6087;48.982;12.064;2023-05-03T01:49:09;10.70;92.20
12053;DHT22;6087;48.982;12.064;2023-05-03T01:51:37;10.70;92.40
12053;DHT22;6087;48.982;12.064;2023-05-03T01:54:04;10.70;92.40
12053;DHT22;6087;48.982;12.064;2023-05-03T01:56:33;10.60;92.60
12053;DHT22;6087;48.982;12.064;2023-05-03T01:59:02;10.60;92.60
12053;DHT22;6087;48.982;12.064;2023-05-03T02:01:29;10.60;92.60
12053;DHT22;6087;48.982;12.064;2023-05-03T02:03:55;10.60;92.60
12053;DHT22;6087;48.982;12.064;2023-05-03T02:06:23;10.60;92.90
12053;DHT22;6087;48.982;12.064;2023-05-03T02:08:50;10.50;92.90
12053;DHT22;6087;48.982;12.064;2023-05-03T02:11:17;10.50;93.30
12053;DHT22;6087;48.982;12.064;2023-05-03T02:13:46;10.50;93.00
12053;DHT22;6087;48.982;12.064;2023-05-03T02:16:15;10.50;92.50
12053;DHT22;6087;48.982;12.064;2023-05-03T02:18:42;10.50;93.20
12053;DHT22;6087;48.982;12.064;2023-05-03T02:21:09;10.50;93.20
12053;DHT22;6087;48.982;12.064;2023-05-03T02:23:35;10.50;92.80
12053;DHT22;6087;48.982;12.064;2023-05-03T02:26:02;10.40;92.60
12053;DHT22;6087;48.982;12.064;2023-05-03T02:28:29;10.40;92.90
12053;DHT22;6087;48.982;12.064;2023-05-03T02:30:56;10.40;92.80
12053;DHT22;6087;48.982;12.064;2023-05-03T02:33:24;10.50;92.50
12053;DHT22;6087;48.982;12.064;2023-05-03T02:35:51;10.40;92.10
12053;DHT22;6087;48.982;12.064;2023-05-03T02:38:23;10.40;91.80
12053;DHT22;6087;48.982;12.064;2023-05-03T02:40:56;10.40;92.20
12053;DHT22;6087;48.982;12.064;2023-05-03T02:43:24;10.40;92.50
12053;DHT22;6087;48.982;12.064;2023-05-03T02:45:51;10.30;92.70
12053;DHT22;6087;48.982;12.064;2023-05-03T02:48:17;10.30;93.00
12053;DHT22;6087;48.982;12.064;2023-05-03T02:50:45;10.30;92.80
12053;DHT22;6087;48.982;12.064;2023-05-03T02:53:12;10.30;92.40
12053;DHT22;6087;48.982;12.064;2023-05-03T02:55:48;10.30;92.20
12053;DHT22;6087;48.982;12.064;2023-05-03T02:58:15;10.20;92.40
12053;DHT22;6087;48.982;12.064;2023-05-03T03:00:42;10.30;92.20
12053;DHT22;6087;48.982;12.064;2023-05-03T03:03:09;10.20;92.40
12053;DHT22;6087;48.982;12.064;2023-05-03T03:05:36;10.20;92.00
12053;DHT22;6087;48.982;12.064;2023-05-03T03:08:14;10.20;92.20
12053;DHT22;6087;48.982;12.064;2023-05-03T03:10:41;10.20;92.40
12053;DHT22;6087;48.982;12.064;2023-05-03T03:13:13;10.20;92.30
12053;DHT22;6087;48.982;12.064;2023-05-03T03:15:40;10.10;92.10
12053;DHT22;6087;48.982;12.064;2023-05-03T03:18:07;10.20;92.80
12053;DHT22;6087;48.982;12.064;2023-05-03T03:20:34;10.20;92.60
12053;DHT22;6087;48.982;12.064;2023-05-03T03:23:03;10.10;92.80
12053;DHT22;6087;48.982;12.064;2023-05-03T03:25:32;10.10;92.90
12053;DHT22;6087;48.982;12.064;2023-05-03T03:28:01;10.10;93.30
12053;DHT22;6087;48.982;12.064;2023-05-03T03:30:36;10.10;93.00
12053;DHT22;6087;48.982;12.064;2023-05-03T03:33:03;10.10;92.70
12053;DHT22;6087;48.982;12.064;2023-05-03T03:35:31;10.10;93.20
12053;DHT22;6087;48.982;12.064;2023-05-03T03:37:57;10.10;93.10
12053;DHT22;6087;48.982;12.064;2023-05-03T03:40:24;10.10;93.00
12053;DHT22;6087;48.982;12.064;2023-05-03T03:42:58;10.00;93.40
12053;DHT22;6087;48.982;12.064;2023-05-03T03:45:25;10.00;93.50
12053;DHT22;6087;48.982;12.064;2023-05-03T03:47:52;9.90;95.00
12053;DHT22;6087;48.982;12.064;2023-05-03T03:50:19;10.00;93.80
12053;DHT22;6087;48.982;12.064;2023-05-03T03:52:45;9.90;94.20
12053;DHT22;6087;48.982;12.064;2023-05-03T03:55:12;9.90;94.20
12053;DHT22;6087;48.982;12.064;2023-05-03T03:57:39;10.00;93.70
12053;DHT22;6087;48.982;12.064;2023-05-03T04:00:08;9.90;95.40
12053;DHT22;6087;48.982;12.064;2023-05-03T04:02:36;9.90;95.00
12053;DHT22;6087;48.982;12.064;2023-05-03T04:05:03;9.90;95.00
12053;DHT22;6087;48.982;12.064;2023-05-03T04:07:31;10.00;94.60
12053;DHT22;6087;48.982;12.064;2023-05-03T04:09:57;9.90;94.90
12053;DHT22;6087;48.982;12.064;2023-05-03T04:12:24;10.00;94.60
12053;DHT22;6087;48.982;12.064;2023-05-03T04:14:51;9.90;95.20
12053;DHT22;6087;48.982;12.064;2023-05-03T04:17:19;9.90;95.30
12053;DHT22;6087;48.982;12.064;2023-05-03T04:19:46;10.00;94.90
12053;DHT22;6087;48.982;12.064;2023-05-03T04:22:13;10.00;95.00
12053;DHT22;6087;48.982;12.064;2023-05-03T04:24:40;10.00;95.20
12053;DHT22;6087;48.982;12.064;2023-05-03T04:27:08;10.00;95.00
12053;DHT22;6087;48.982;12.064;2023-05-03T04:29:35;10.00;95.10
12053;DHT22;6087;48.982;12.064;2023-05-03T04:32:03;10.10;94.90
12053;DHT22;6087;48.982;12.064;2023-05-03T04:34:32;10.00;95.30
12053;DHT22;6087;48.982;12.064;2023-05-03T04:36:59;10.10;95.00
12053;DHT22;6087;48.982;12.064;2023-05-03T04:39:26;10.10;95.10
12053;DHT22;6087;48.982;12.064;2023-05-03T04:41:53;10.10;95.20
12053;DHT22;6087;48.982;12.064;2023-05-03T04:44:19;10.10;95.50
12053;DHT22;6087;48.982;12.064;2023-05-03T04:46:53;10.10;95.30
12053;DHT22;6087;48.982;12.064;2023-05-03T04:49:19;10.10;95.30
12053;DHT22;6087;48.982;12.064;2023-05-03T04:51:48;10.10;96.00
12053;DHT22;6087;48.982;12.064;2023-05-03T04:54:18;10.20;95.80
12053;DHT22;6087;48.982;12.064;2023-05-03T04:56:44;10.20;95.60
12053;DHT22;6087;48.982;12.064;2023-05-03T04:59:11;10.20;95.70
12053;DHT22;6087;48.982;12.064;2023-05-03T05:01:38;10.20;96.30
12053;DHT22;6087;48.982;12.064;2023-05-03T05:04:05;10.20;96.20
12053;DHT22;6087;48.982;12.064;2023-05-03T05:06:32;10.20;96.10
12053;DHT22;6087;48.982;12.064;2023-05-03T05:09:00;10.20;97.20
12053;DHT22;6087;48.982;12.064;2023-05-03T05:11:26;10.20;97.10
12053;DHT22;6087;48.982;12.064;2023-05-03T05:13:53;10.20;96.70
12053;DHT22;6087;48.982;12.064;2023-05-03T05:16:20;10.30;97.00
12053;DHT22;6087;48.982;12.064;2023-05-03T05:18:47;10.30;96.80
12053;DHT22;6087;48.982;12.064;2023-05-03T05:21:14;10.30;97.30
12053;DHT22;6087;48.982;12.064;2023-05-03T05:23:41;10.30;96.20
12053;DHT22;6087;48.982;12.064;2023-05-03T05:26:09;10.30;97.50
12053;DHT22;6087;48.982;12.064;2023-05-03T05:28:36;10.40;97.00
12053;DHT22;6087;48.982;12.064;2023-05-03T05:31:06;10.40;96.80
12053;DHT22;6087;48.982;12.064;2023-05-03T05:33:35;10.50;96.80
12053;DHT22;6087;48.982;12.064;2023-05-03T05:36:02;10.50;96.40
12053;DHT22;6087;48.982;12.064;2023-05-03T05:38:32;10.60;96.60
12053;DHT22;6087;48.982;12.064;2023-05-03T05:40:59;10.50;96.50
12053;DHT22;6087;48.982;12.064;2023-05-03T05:43:27;10.60;96.60
12053;DHT22;6087;48.982;12.064;2023-05-03T05:45:54;10.70;96.50
12053;DHT22;6087;48.982;12.064;2023-05-03T05:48:21;10.70;96.70
12053;DHT22;6087;48.982;12.064;2023-05-03T05:50:48;10.80;95.50
12053;DHT22;6087;48.982;12.064;2023-05-03T05:53:15;10.80;95.50
12053;DHT22;6087;48.982;12.064;2023-05-03T05:55:42;10.80;95.70
12053;DHT22;6087;48.982;12.064;2023-05-03T05:58:09;10.90;96.10
12053;DHT22;6087;48.982;12.064;2023-05-03T06:00:38;10.90;96.20
12053;DHT22;6087;48.982;12.064;2023-05-03T06:03:05;11.00;94.50
12053;DHT22;6087;48.982;12.064;2023-05-03T06:05:32;11.00;93.50
12053;DHT22;6087;48.982;12.064;2023-05-03T06:07:59;11.10;93.70
12053;DHT22;6087;48.982;12.064;2023-05-03T06:10:26;11.10;94.00
12053;DHT22;6087;48.982;12.064;2023-05-03T06:12:53;11.20;94.10
12053;DHT22;6087;48.982;12.064;2023-05-03T06:15:22;11.20;93.40
12053;DHT22;6087;48.982;12.064;2023-05-03T06:17:57;11.30;93.30
12053;DHT22;6087;48.982;12.064;2023-05-03T06:20:24;11.30;92.60
12053;DHT22;6087;48.982;12.064;2023-05-03T06:22:54;11.30;93.10
12053;DHT22;6087;48.982;12.064;2023-05-03T06:25:21;11.40;92.40
12053;DHT22;6087;48.982;12.064;2023-05-03T06:27:48;11.40;92.10
12053;DHT22;6087;48.982;12.064;2023-05-03T06:30:15;11.50;92.30
12053;DHT22;6087;48.982;12.064;2023-05-03T06:32:42;11.60;91.70
12053;DHT22;6087;48.982;12.064;2023-05-03T06:35:10;11.70;91.40
12053;DHT22;6087;48.982;12.064;2023-05-03T06:37:37;11.70;90.50
12053;DHT22;6087;48.982;12.064;2023-05-03T06:40:05;11.70;88.40
12053;DHT22;6087;48.982;12.064;2023-05-03T06:42:32;11.80;89.10
12053;DHT22;6087;48.982;12.064;2023-05-03T06:45:02;11.80;88.10
12053;DHT22;6087;48.982;12.064;2023-05-03T06:47:29;11.80;88.10
12053;DHT22;6087;48.982;12.064;2023-05-03T06:49:56;11.90;88.10
12053;DHT22;6087;48.982;12.064;2023-05-03T06:52:34;11.90;86.30
12053;DHT22;6087;48.982;12.064;2023-05-03T06:55:02;12.00;86.80
12053;DHT22;6087;48.982;12.064;2023-05-03T06:57:29;12.00;87.10
12053;DHT22;6087;48.982;12.064;2023-05-03T06:59:56;12.10;85.40
12053;DHT22;6087;48.982;12.064;2023-05-03T07:02:22;12.10;84.40
12053;DHT22;6087;48.982;12.064;2023-05-03T07:04:51;12.20;83.00
12053;DHT22;6087;48.982;12.064;2023-05-03T07:07:20;12.20;82.20
12053;DHT22;6087;48.982;12.064;2023-05-03T07:09:53;12.20;81.90
12053;DHT22;6087;48.982;12.064;2023-05-03T07:12:26;12.30;79.90
12053;DHT22;6087;48.982;12.064;2023-05-03T07:14:53;12.30;80.00
12053;DHT22;6087;48.982;12.064;2023-05-03T07:17:20;12.30;79.20
12053;DHT22;6087;48.982;12.064;2023-05-03T07:19:48;12.30;77.40
12053;DHT22;6087;48.982;12.064;2023-05-03T07:22:15;12.40;78.60
12053;DHT22;6087;48.982;12.064;2023-05-03T07:24:41;12.40;78.00
12053;DHT22;6087;48.982;12.064;2023-05-03T07:27:10;12.40;78.10
12053;DHT22;6087;48.982;12.064;2023-05-03T07:29:36;12.40;77.10
12053;DHT22;6087;48.982;12.064;2023-05-03T07:32:04;12.50;77.60
12053;DHT22;6087;48.982;12.064;2023-05-03T07:34:31;12.50;76.30
12053;DHT22;6087;48.982;12.064;2023-05-03T07:36:58;12.50;75.40
12053;DHT22;6087;48.982;12.064;2023-05-03T07:39:25;12.50;76.40
12053;DHT22;6087;48.982;12.064;2023-05-03T07:41:51;12.60;75.90
12053;DHT22;6087;48.982;12.064;2023-05-03T07:44:20;12.60;75.20
12053;DHT22;6087;48.982;12.064;2023-05-03T07:46:46;12.60;75.90
12053;DHT22;6087;48.982;12.064;2023-05-03T07:49:13;12.70;75.10
12053;DHT22;6087;48.982;12.064;2023-05-03T07:51:40;12.70;75.70
12053;DHT22;6087;48.982;12.064;2023-05-03T07:54:07;12.80;75.90
12053;DHT22;6087;48.982;12.064;2023-05-03T07:56:34;12.90;74.50
12053;DHT22;6087;48.982;12.064;2023-05-03T07:59:01;12.90;72.60
12053;DHT22;6087;48.982;12.064;2023-05-03T08:01:29;13.00;72.50
12053;DHT22;6087;48.982;12.064;2023-05-03T08:03:56;13.00;73.30
12053;DHT22;6087;48.982;12.064;2023-05-03T08:06:23;13.10;74.30
12053;DHT22;6087;48.982;12.064;2023-05-03T08:08:50;13.10;73.60
12053;DHT22;6087;48.982;12.064;2023-05-03T08:11:17;13.10;71.50
12053;DHT22;6087;48.982;12.064;2023-05-03T08:13:44;13.20;71.00
12053;DHT22;6087;48.982;12.064;2023-05-03T08:16:14;13.20;70.80
12053;DHT22;6087;48.982;12.064;2023-05-03T08:18:43;13.30;70.50
12053;DHT22;6087;48.982;12.064;2023-05-03T08:21:09;13.30;70.60
12053;DHT22;6087;48.982;12.064;2023-05-03T08:23:37;13.30;70.40
12053;DHT22;6087;48.982;12.064;2023-05-03T08:26:20;13.30;69.30
12053;DHT22;6087;48.982;12.064;2023-05-03T08:28:48;13.30;69.50
12053;DHT22;6087;48.982;12.064;2023-05-03T08:31:15;13.30;68.70
12053;DHT22;6087;48.982;12.064;2023-05-03T08:33:43;13.30;69.30
12053;DHT22;6087;48.982;12.064;2023-05-03T08:36:10;13.40;69.50
12053;DHT22;6087;48.982;12.064;2023-05-03T08:38:40;13.40;68.80
12053;DHT22;6087;48.982;12.064;2023-05-03T08:41:16;13.50;68.60
12053;DHT22;6087;48.982;12.064;2023-05-03T08:43:44;13.50;67.50
12053;DHT22;6087;48.982;12.064;2023-05-03T08:46:12;13.50;67.40
12053;DHT22;6087;48.982;12.064;2023-05-03T08:48:39;13.60;66.80
12053;DHT22;6087;48.982;12.064;2023-05-03T08:51:09;13.70;68.40
12053;DHT22;6087;48.982;12.064;2023-05-03T08:53:36;13.70;67.30
12053;DHT22;6087;48.982;12.064;2023-05-03T08:56:07;13.80;66.60
12053;DHT22;6087;48.982;12.064;2023-05-03T08:58:34;13.90;66.50
12053;DHT22;6087;48.982;12.064;2023-05-03T09:01:05;13.90;67.10
12053;DHT22;6087;48.982;12.064;2023-05-03T09:03:35;14.00;66.30
12053;DHT22;6087;48.982;12.064;2023-05-03T09:06:20;14.00;64.70
12053;DHT22;6087;48.982;12.064;2023-05-03T09:08:46;14.10;65.00
12053;DHT22;6087;48.982;12.064;2023-05-03T09:11:21;14.10;64.20
12053;DHT22;6087;48.982;12.064;2023-05-03T09:13:49;14.10;65.00
12053;DHT22;6087;48.982;12.064;2023-05-03T09:16:23;14.20;64.20
12053;DHT22;6087;48.982;12.064;2023-05-03T09:18:58;14.20;63.90
12053;DHT22;6087;48.982;12.064;2023-05-03T09:21:27;14.20;63.50
12053;DHT22;6087;48.982;12.064;2023-05-03T09:23:55;14.20;62.00
12053;DHT22;6087;48.982;12.064;2023-05-03T09:26:30;14.20;62.30
12053;DHT22;6087;48.982;12.064;2023-05-03T09:28:58;14.30;62.30
12053;DHT22;6087;48.982;12.064;2023-05-03T09:31:26;14.30;61.20
12053;DHT22;6087;48.982;12.064;2023-05-03T09:33:53;14.30;61.50
12053;DHT22;6087;48.982;12.064;2023-05-03T09:36:20;14.30;62.20
12053;DHT22;6087;48.982;12.064;2023-05-03T09:38:49;14.30;61.90
12053;DHT22;6087;48.982;12.064;2023-05-03T09:41:30;14.40;61.80
12053;DHT22;6087;48.982;12.064;2023-05-03T09:44:00;14.40;61.50
12053;DHT22;6087;48.982;12.064;2023-05-03T09:46:28;14.40;60.90
12053;DHT22;6087;48.982;12.064;2023-05-03T09:48:56;14.50;61.60
12053;DHT22;6087;48.982;12.064;2023-05-03T09:51:23;14.50;61.30
12053;DHT22;6087;48.982;12.064;2023-05-03T09:53:51;14.50;59.60
12053;DHT22;6087;48.982;12.064;2023-05-03T09:56:19;14.50;58.70
12053;DHT22;6087;48.982;12.064;2023-05-03T09:58:51;14.60;59.50
12053;DHT22;6087;48.982;12.064;2023-05-03T10:01:18;14.60;60.20
12053;DHT22;6087;48.982;12.064;2023-05-03T10:03:47;14.60;59.00
12053;DHT22;6087;48.982;12.064;2023-05-03T10:06:21;14.70;59.50
12053;DHT22;6087;48.982;12.064;2023-05-03T10:08:54;14.70;58.80
12053;DHT22;6087;48.982;12.064;2023-05-03T10:11:25;14.70;59.00
12053;DHT22;6087;48.982;12.064;2023-05-03T10:13:52;14.70;58.70
12053;DHT22;6087;48.982;12.064;2023-05-03T10:16:22;14.70;58.20
12053;DHT22;6087;48.982;12.064;2023-05-03T10:18:53;14.70;57.80
12053;DHT22;6087;48.982;12.064;2023-05-03T10:21:28;14.80;58.50
12053;DHT22;6087;48.982;12.064;2023-05-03T10:24:11;14.80;56.00
12053;DHT22;6087;48.982;12.064;2023-05-03T10:26:43;14.90;54.70
12053;DHT22;6087;48.982;12.064;2023-05-03T10:29:49;14.90;51.20
12053;DHT22;6087;48.982;12.064;2023-05-03T10:32:43;15.00;51.50
12053;DHT22;6087;48.982;12.064;2023-05-03T10:35:17;15.10;52.50
12053;DHT22;6087;48.982;12.064;2023-05-03T10:37:44;15.10;51.60
12053;DHT22;6087;48.982;12.064;2023-05-03T10:40:16;15.20;53.70
12053;DHT22;6087;48.982;12.064;2023-05-03T10:42:45;15.30;53.80
12053;DHT22;6087;48.982;12.064;2023-05-03T10:45:23;15.30;52.70
12053;DHT22;6087;48.982;12.064;2023-05-03T10:48:15;15.50;52.90
12053;DHT22;6087;48.982;12.064;2023-05-03T10:50:45;15.60;53.50
12053;DHT22;6087;48.982;12.064;2023-05-03T10:53:33;15.60;51.00
12053;DHT22;6087;48.982;12.064;2023-05-03T10:56:02;15.70;52.10
12053;DHT22;6087;48.982;12.064;2023-05-03T10:58:34;15.80;51.10
12053;DHT22;6087;48.982;12.064;2023-05-03T11:01:02;15.90;49.50
12053;DHT22;6087;48.982;12.064;2023-05-03T11:03:50;15.90;49.90
12053;DHT22;6087;48.982;12.064;2023-05-03T11:06:30;15.90;48.70
12053;DHT22;6087;48.982;12.064;2023-05-03T11:08:58;15.90;49.70
12053;DHT22;6087;48.982;12.064;2023-05-03T11:11:27;16.00;48.10
12053;DHT22;6087;48.982;12.064;2023-05-03T11:13:54;16.00;47.30
12053;DHT22;6087;48.982;12.064;2023-05-03T11:16:21;15.90;46.00
12053;DHT22;6087;48.982;12.064;2023-05-03T11:18:48;15.80;44.60
12053;DHT22;6087;48.982;12.064;2023-05-03T11:21:16;15.80;46.30
12053;DHT22;6087;48.982;12.064;2023-05-03T11:23:44;15.80;45.70
12053;DHT22;6087;48.982;12.064;2023-05-03T11:26:12;15.90;46.00
12053;DHT22;6087;48.982;12.064;2023-05-03T11:28:41;16.00;47.20
12053;DHT22;6087;48.982;12.064;2023-05-03T11:31:09;16.10;46.10
12053;DHT22;6087;48.982;12.064;2023-05-03T11:33:36;16.30;47.00
12053;DHT22;6087;48.982;12.064;2023-05-03T11:36:05;16.40;46.40
12053;DHT22;6087;48.982;12.064;2023-05-03T11:38:34;16.40;44.20
12053;DHT22;6087;48.982;12.064;2023-05-03T11:41:11;16.40;43.40
12053;DHT22;6087;48.982;12.064;2023-05-03T11:43:41;16.40;43.10
12053;DHT22;6087;48.982;12.064;2023-05-03T11:46:08;16.50;43.70
12053;DHT22;6087;48.982;12.064;2023-05-03T11:48:36;16.60;42.50
12053;DHT22;6087;48.982;12.064;2023-05-03T11:51:07;16.80;41.90
12053;DHT22;6087;48.982;12.064;2023-05-03T11:53:37;17.00;41.60
12053;DHT22;6087;48.982;12.064;2023-05-03T11:56:07;17.20;40.20
12053;DHT22;6087;48.982;12.064;2023-05-03T11:58:35;17.30;36.70
12053;DHT22;6087;48.982;12.064;2023-05-03T12:01:16;17.40;37.70
12053;DHT22;6087;48.982;12.064;2023-05-03T12:03:43;17.50;36.70
12053;DHT22;6087;48.982;12.064;2023-05-03T12:06:12;17.60;34.30
12053;DHT22;6087;48.982;12.064;2023-05-03T12:08:40;17.80;32.90
12053;DHT22;6087;48.982;12.064;2023-05-03T12:11:07;17.90;32.90
12053;DHT22;6087;48.982;12.064;2023-05-03T12:13:35;18.10;32.30
12053;DHT22;6087;48.982;12.064;2023-05-03T12:16:03;18.20;31.30
12053;DHT22;6087;48.982;12.064;2023-05-03T12:18:46;18.40;29.60
12053;DHT22;6087;48.982;12.064;2023-05-03T12:21:14;18.50;28.90
12053;DHT22;6087;48.982;12.064;2023-05-03T12:23:41;18.50;26.30
12053;DHT22;6087;48.982;12.064;2023-05-03T12:26:08;18.60;27.70
12053;DHT22;6087;48.982;12.064;2023-05-03T12:28:35;18.70;25.00
12053;DHT22;6087;48.982;12.064;2023-05-03T12:31:04;18.80;23.80
12053;DHT22;6087;48.982;12.064;2023-05-03T12:33:31;19.00;21.50
12053;DHT22;6087;48.982;12.064;2023-05-03T12:36:00;19.10;23.20
12053;DHT22;6087;48.982;12.064;2023-05-03T12:38:27;19.20;25.10
12053;DHT22;6087;48.982;12.064;2023-05-03T12:40:54;19.30;24.10
12053;DHT22;6087;48.982;12.064;2023-05-03T12:43:22;19.40;22.60
12053;DHT22;6087;48.982;12.064;2023-05-03T12:45:49;19.50;22.50
12053;DHT22;6087;48.982;12.064;2023-05-03T12:48:16;19.60;20.60
12053;DHT22;6087;48.982;12.064;2023-05-03T12:50:43;19.60;18.90
12053;DHT22;6087;48.982;12.064;2023-05-03T12:53:11;19.60;18.90
12053;DHT22;6087;48.982;12.064;2023-05-03T12:55:38;19.60;16.50
12053;DHT22;6087;48.982;12.064;2023-05-03T12:58:05;19.70;16.80
12053;DHT22;6087;48.982;12.064;2023-05-03T13:00:32;19.80;17.80
12053;DHT22;6087;48.982;12.064;2023-05-03T13:02:59;19.80;13.60
12053;DHT22;6087;48.982;12.064;2023-05-03T13:05:32;19.80;13.80
12053;DHT22;6087;48.982;12.064;2023-05-03T13:08:02;19.80;14.30
12053;DHT22;6087;48.982;12.064;2023-05-03T13:10:31;19.80;11.90
12053;DHT22;6087;48.982;12.064;2023-05-03T13:12:58;19.60;12.30
12053;DHT22;6087;48.982;12.064;2023-05-03T13:15:25;19.50;13.10
12053;DHT22;6087;48.982;12.064;2023-05-03T13:17:52;19.40;14.60
12053;DHT22;6087;48.982;12.064;2023-05-03T13:20:19;19.30;12.60
12053;DHT22;6087;48.982;12.064;2023-05-03T13:22:49;19.20;13.50
12053;DHT22;6087;48.982;12.064;2023-05-03T13:25:16;19.30;12.30
12053;DHT22;6087;48.982;12.064;2023-05-03T13:27:44;19.40;11.20
12053;DHT22;6087;48.982;12.064;2023-05-03T13:30:14;19.50;8.10
12053;DHT22;6087;48.982;12.064;2023-05-03T13:32:41;19.50;8.50
12053;DHT22;6087;48.982;12.064;2023-05-03T13:35:11;19.60;4.20
12053;DHT22;6087;48.982;12.064;2023-05-03T13:37:41;19.60;9.20
12053;DHT22;6087;48.982;12.064;2023-05-03T13:40:09;19.70;7.50
12053;DHT22;6087;48.982;12.064;2023-05-03T13:42:36;19.70;11.40
12053;DHT22;6087;48.982;12.064;2023-05-03T13:45:06;19.80;11.40
12053;DHT22;6087;48.982;12.064;2023-05-03T13:47:33;19.80;10.80
12053;DHT22;6087;48.982;12.064;2023-05-03T13:50:00;19.90;10.00
12053;DHT22;6087;48.982;12.064;2023-05-03T13:52:27;19.90;8.60
12053;DHT22;6087;48.982;12.064;2023-05-03T13:55:02;19.90;7.90
12053;DHT22;6087;48.982;12.064;2023-05-03T13:57:29;19.90;7.20
12053;DHT22;6087;48.982;12.064;2023-05-03T13:59:55;19.90;6.90
12053;DHT22;6087;48.982;12.064;2023-05-03T14:02:27;19.90;6.00
12053;DHT22;6087;48.982;12.064;2023-05-03T14:04:54;19.90;7.90
12053;DHT22;6087;48.982;12.064;2023-05-03T14:07:21;19.90;7.10
12053;DHT22;6087;48.982;12.064;2023-05-03T14:09:53;19.90;5.90
12053;DHT22;6087;48.982;12.064;2023-05-03T14:12:25;19.80;4.70
12053;DHT22;6087;48.982;12.064;2023-05-03T14:14:52;19.80;3.50
12053;DHT22;6087;48.982;12.064;2023-05-03T14:17:19;19.80;2.10
12053;DHT22;6087;48.982;12.064;2023-05-03T14:19:47;19.80;1.00
12053;DHT22;6087;48.982;12.064;2023-05-03T14:22:14;19.70;2.90
12053;DHT22;6087;48.982;12.064;2023-05-03T14:24:41;19.70;3.90
12053;DHT22;6087;48.982;12.064;2023-05-03T14:27:08;19.70;2.40
12053;DHT22;6087;48.982;12.064;2023-05-03T14:29:35;19.60;1.60
12053;DHT22;6087;48.982;12.064;2023-05-03T14:32:02;19.60;2.10
12053;DHT22;6087;48.982;12.064;2023-05-03T14:34:30;19.60;1.90
12053;DHT22;6087;48.982;12.064;2023-05-03T14:36:58;19.60;3.20
12053;DHT22;6087;48.982;12.064;2023-05-03T14:39:25;19.60;1.30
12053;DHT22;6087;48.982;12.064;2023-05-03T14:41:52;19.50;1.00
12053;DHT22;6087;48.982;12.064;2023-05-03T14:44:18;19.50;1.00
12053;DHT22;6087;48.982;12.064;2023-05-03T14:46:45;19.40;1.00
12053;DHT22;6087;48.982;12.064;2023-05-03T14:49:12;19.40;1.00
12053;DHT22;6087;48.982;12.064;2023-05-03T14:51:42;19.40;1.00
12053;DHT22;6087;48.982;12.064;2023-05-03T14:54:10;19.30;1.20
12053;DHT22;6087;48.982;12.064;2023-05-03T14:56:37;19.30;1.20
12053;DHT22;6087;48.982;12.064;2023-05-03T14:59:04;19.20;1.00
12053;DHT22;6087;48.982;12.064;2023-05-03T15:01:37;19.20;1.00
12053;DHT22;6087;48.982;12.064;2023-05-03T15:04:04;19.10;1.00
12053;DHT22;6087;48.982;12.064;2023-05-03T15:06:32;19.10;1.00
12053;DHT22;6087;48.982;12.064;2023-05-03T15:09:03;19.10;1.00
12053;DHT22;6087;48.982;12.064;2023-05-03T15:11:31;19.00;1.00
12053;DHT22;6087;48.982;12.064;2023-05-03T15:13:58;19.00;1.00
12053;DHT22;6087;48.982;12.064;2023-05-03T15:16:25;18.90;1.00
12053;DHT22;6087;48.982;12.064;2023-05-03T15:18:52;18.90;1.00
12053;DHT22;6087;48.982;12.064;2023-05-03T15:21:19;18.90;1.00
12053;DHT22;6087;48.982;12.064;2023-05-03T15:23:46;18.90;1.00
12053;DHT22;6087;48.982;12.064;2023-05-03T15:26:14;18.90;1.00
12053;DHT22;6087;48.982;12.064;2023-05-03T15:28:42;18.80;1.00
12053;DHT22;6087;48.982;12.064;2023-05-03T15:31:11;18.80;1.00
12053;DHT22;6087;48.982;12.064;2023-05-03T15:33:39;18.80;1.00
12053;DHT22;6087;48.982;12.064;2023-05-03T15:36:08;18.70;1.00
12053;DHT22;6087;48.982;12.064;2023-05-03T15:38:36;18.60;1.00
12053;DHT22;6087;48.982;12.064;2023-05-03T15:41:03;18.70;1.00
12053;DHT22;6087;48.982;12.064;2023-05-03T15:43:32;18.60;1.00